首页
METAR-TAF:

METAR-TAF

机场 :

Ponta Delgada, 亚速尔群岛, 葡萄牙

纬度: 37-44N, 经度: 025-42W, 海拔: 71米

当前天气观测

该预报发布于13分钟前的00:00 UTC
风速4节,风向东北
温度 22°C
湿度 88%
气压 1030 hPa
能见度10公里或以上
散云层高于1600英尺

METAR: LPPD 170000Z 04004KT 9999 SCT016 22/20 Q1030

时间: 00:13 (00:13 UTC)

预报

该预报发布于1小时和13分钟前的23:00 UTC
预报有效从17日的 00点(UTC)到 17日的 24点(UTC)
风速5节,风向多变
能见度10公里或以上
少量云层高于2000英尺
短暂存在
从 17日的 00点(UTC)到 17日的 24点(UTC)
散云层高于1800英尺
散云层高于3000英尺
几率 30% :
短暂存在
从 17日的 12点(UTC)到 17日的 20点(UTC)
风速7节,风向

TAF: LPPD 162300Z 1700/1724 VRB05KT 9999 FEW020 TEMPO 1700/1724 SCT018 SCT030 PROB30 TEMPO 1712/1720 18007KT

超过4000个机场的气象观测和天气预报(METAR&TAF报告)。

可查询的气象台以黄色和红色小点在地图上表示。

将鼠标移到小点上方,可查看气象台名称。

然后点击查看天气观测和预报。

如需切换地图:点击带黑十字的绿色按钮放大地图;点击带横线的绿色按钮缩小地图;或者点击绿色箭头查看邻近地区的地图。


METAR-TAF: